TimeCST,TemperatureF,Dew PointF,Humidity,Sea Level PressureIn,VisibilityMPH,Wind Direction,Wind SpeedMPH,Gust SpeedMPH,PrecipitationIn,Events,Conditions,WindDirDegrees,DateUTC
12:54 AM,53.1,46.9,80,29.56,10.0,South,13.8,-,N/A,,Partly Cloudy,180,2011-11-13 06:54:00
1:54 AM,53.6,46.4,77,29.54,10.0,South,17.3,23.0,N/A,,Mostly Cloudy,180,2011-11-13 07:54:00
2:54 AM,53.1,48.0,83,29.52,10.0,South,17.3,25.3,N/A,,Clear,190,2011-11-13 08:54:00
3:54 AM,53.1,48.0,83,29.50,10.0,South,15.0,-,N/A,,Clear,190,2011-11-13 09:54:00
4:54 AM,54.0,48.0,80,29.49,10.0,South,17.3,24.2,N/A,,Clear,190,2011-11-13 10:54:00
5:54 AM,54.0,48.9,83,29.48,10.0,South,15.0,-,N/A,,Clear,180,2011-11-13 11:54:00
6:54 AM,54.0,48.9,83,29.45,10.0,South,19.6,25.3,N/A,,Clear,180,2011-11-13 12:54:00
7:54 AM,55.9,50.0,80,29.43,10.0,South,18.4,31.1,N/A,,Clear,180,2011-11-13 13:54:00
8:54 AM,60.1,52.0,75,29.41,10.0,South,24.2,33.4,N/A,,Clear,190,2011-11-13 14:54:00
9:54 AM,64.0,52.0,65,29.40,10.0,SSW,26.5,40.3,N/A,,Clear,200,2011-11-13 15:54:00
10:54 AM,66.9,51.1,57,29.40,10.0,SW,33.4,42.6,N/A,,Clear,220,2011-11-13 16:54:00
11:54 AM,70.0,45.0,41,29.39,10.0,SW,24.2,33.4,N/A,,Clear,230,2011-11-13 17:54:00
12:54 PM,73.0,41.0,31,29.39,10.0,SW,24.2,34.5,N/A,,Clear,220,2011-11-13 18:54:00
1:54 PM,73.0,37.0,27,29.40,10.0,SW,18.4,29.9,N/A,,Clear,230,2011-11-13 19:54:00
2:54 PM,72.0,32.0,23,29.42,10.0,WSW,25.3,35.7,N/A,,Clear,240,2011-11-13 20:54:00
3:54 PM,69.8,32.0,25,29.44,10.0,SW,23.0,35.7,N/A,,Clear,230,2011-11-13 21:54:00
4:54 PM,66.9,30.9,26,29.49,10.0,West,15.0,21.9,N/A,,Clear,260,2011-11-13 22:54:00
5:54 PM,57.9,30.0,35,29.55,10.0,West,8.1,-,N/A,,Clear,280,2011-11-13 23:54:00
6:54 PM,55.0,30.0,38,29.58,10.0,West,3.5,-,N/A,,Clear,280,2011-11-14 00:54:00
7:54 PM,53.1,30.9,43,29.60,10.0,WSW,3.5,-,N/A,,Clear,250,2011-11-14 01:54:00
8:54 PM,51.1,30.9,46,29.62,10.0,West,3.5,-,N/A,,Clear,280,2011-11-14 02:54:00
9:54 PM,51.1,32.0,48,29.65,10.0,West,5.8,-,N/A,,Clear,280,2011-11-14 03:54:00
10:54 PM,52.0,32.0,47,29.65,10.0,WNW,5.8,-,N/A,,Clear,290,2011-11-14 04:54:00
11:54 PM,50.0,32.0,50,29.65,10.0,NW,3.5,-,N/A,,Clear,310,2011-11-14 05:54:00